createdAt,value
2023-02-01T00:02:13.664Z,95359.84
2023-02-01T00:04:42.194Z,95288.50
2023-02-01T00:07:08.711Z,95190.97
2023-02-01T00:09:35.367Z,95153.19
2023-02-01T00:12:03.767Z,95130.78
2023-02-01T00:14:30.644Z,95109.38
2023-02-01T00:16:58.428Z,95107.38
2023-02-01T00:19:24.893Z,95134.44
2023-02-01T00:21:51.388Z,95106.31
2023-02-01T00:24:17.835Z,95013.84
2023-02-01T00:26:45.770Z,94974.81
2023-02-01T00:29:13.923Z,94942.94
2023-02-01T00:31:42.141Z,94940.03
2023-02-01T00:34:09.809Z,94958.13
2023-02-01T00:36:37.480Z,94959.72
2023-02-01T00:39:03.969Z,94936.44
2023-02-01T00:41:30.498Z,94916.56
2023-02-01T00:43:57.203Z,94887.16
2023-02-01T00:46:23.941Z,94843.66
2023-02-01T00:48:51.917Z,94823.78
2023-02-01T00:51:19.911Z,94762.28
2023-02-01T00:53:46.647Z,94717.38
2023-02-01T00:56:13.600Z,94720.38
2023-02-01T00:58:40.064Z,94721.78
2023-02-01T01:01:08.287Z,94720.91
2023-02-01T01:03:36.078Z,94726.56
2023-02-01T01:06:03.856Z,94709.63
2023-02-01T01:08:30.547Z,94683.31
2023-02-01T01:10:57.189Z,94609.16
2023-02-01T01:13:23.754Z,94552.00
2023-02-01T01:15:50.527Z,94557.72
2023-02-01T01:18:17.067Z,94505.13
2023-02-01T01:20:43.585Z,94508.41
2023-02-01T01:23:11.380Z,94552.97
2023-02-01T01:25:38.804Z,94567.16
2023-02-01T01:28:05.752Z,94559.09
2023-02-01T01:30:32.403Z,94596.34
2023-02-01T01:32:58.869Z,94621.56
2023-02-01T01:35:26.527Z,94603.34
2023-02-01T01:37:52.956Z,94598.53
2023-02-01T01:40:19.659Z,94539.31
2023-02-01T01:42:46.303Z,94474.59
2023-02-01T01:45:12.809Z,94429.78
2023-02-01T01:47:44.297Z,94394.84
2023-02-01T01:50:12.835Z,94355.94
2023-02-01T01:52:40.996Z,94387.91
2023-02-01T01:55:07.949Z,94415.25
2023-02-01T01:57:38.258Z,94428.34
2023-02-01T02:00:10.393Z,94364.41
2023-02-01T02:02:38.165Z,94316.06
2023-02-01T02:05:05.213Z,94310.00
2023-02-01T02:10:02.520Z,94270.88
2023-02-01T02:12:29.212Z,94237.94
2023-02-01T02:14:55.860Z,94240.75
2023-02-01T02:17:51.874Z,94279.38
2023-02-01T02:20:19.024Z,94272.94
2023-02-01T02:23:04.372Z,94251.50
2023-02-01T02:25:50.684Z,94217.00
2023-02-01T02:28:23.342Z,94204.44
2023-02-01T02:31:11.291Z,94214.00
2023-02-01T02:33:47.584Z,94279.25
2023-02-01T02:36:19.215Z,94339.50
2023-02-01T02:38:50.460Z,94397.75
2023-02-01T02:41:41.537Z,94434.59
2023-02-01T02:44:33.744Z,94460.34
2023-02-01T02:47:22.212Z,94480.19
2023-02-01T02:50:22.675Z,94490.41
2023-02-01T02:53:11.940Z,94449.44
2023-02-01T02:55:39.668Z,94408.84
2023-02-01T02:58:25.411Z,94468.81
2023-02-01T03:01:11.227Z,94527.28
2023-02-01T03:03:57.329Z,94564.56
2023-02-01T03:06:24.293Z,94530.06
2023-02-01T03:08:57.865Z,94508.88
2023-02-01T03:11:25.845Z,94501.16
2023-02-01T03:13:53.965Z,94470.72
2023-02-01T03:16:30.923Z,94436.31
2023-02-01T03:18:57.491Z,94452.72
2023-02-01T03:21:29.739Z,94468.31
2023-02-01T03:23:59.036Z,94553.50
2023-02-01T03:26:27.759Z,94619.72
2023-02-01T03:28:57.270Z,94673.88
2023-02-01T03:31:25.721Z,94685.53
2023-02-01T03:33:52.272Z,94668.66
2023-02-01T03:36:32.694Z,94617.81
2023-02-01T03:39:04.259Z,94603.34
2023-02-01T03:41:42.928Z,94621.72
2023-02-01T03:44:27.378Z,94618.13
2023-02-01T03:47:00.061Z,94616.78
2023-02-01T03:49:29.416Z,94642.19
2023-02-01T03:51:57.793Z,94647.03
2023-02-01T03:54:26.534Z,94649.22
2023-02-01T03:56:55.492Z,94658.91
2023-02-01T03:59:21.995Z,94710.81
2023-02-01T04:01:48.505Z,94765.09
2023-02-01T04:04:21.038Z,94780.31
2023-02-01T04:06:48.375Z,94792.91
2023-02-01T04:09:14.987Z,94823.78
2023-02-01T04:11:41.518Z,94886.94
2023-02-01T04:14:08.066Z,94851.88
2023-02-01T04:16:35.938Z,94749.41
2023-02-01T04:19:02.522Z,94658.31
2023-02-01T04:21:30.657Z,94580.34
2023-02-01T04:23:57.108Z,94548.13
2023-02-01T04:26:24.941Z,94552.00
2023-02-01T04:28:52.115Z,94518.97
2023-02-01T04:31:26.976Z,94467.09
2023-02-01T04:33:54.241Z,94478.69
2023-02-01T04:36:23.038Z,94527.94
2023-02-01T04:38:51.750Z,94539.13
2023-02-01T04:41:19.870Z,94555.00
2023-02-01T04:43:47.378Z,94564.88
2023-02-01T04:46:14.116Z,94554.56
2023-02-01T04:48:40.870Z,94491.16
2023-02-01T04:51:07.351Z,94368.59
2023-02-01T04:53:33.896Z,94290.59
2023-02-01T04:56:01.554Z,94297.91
2023-02-01T04:58:28.131Z,94362.13
2023-02-01T05:00:54.602Z,94389.88
2023-02-01T05:03:21.324Z,94407.72
2023-02-01T05:05:50.564Z,94416.25
2023-02-01T05:08:17.325Z,94411.50
2023-02-01T05:10:45.742Z,94411.31
2023-02-01T05:13:31.786Z,94430.69
2023-02-01T05:15:58.329Z,94437.84
2023-02-01T05:18:24.966Z,94444.16
2023-02-01T05:20:51.416Z,94431.22
2023-02-01T05:23:17.883Z,94329.44
2023-02-01T05:25:44.444Z,94229.84
2023-02-01T05:28:12.246Z,94202.97
2023-02-01T05:30:41.204Z,94231.56
2023-02-01T05:33:10.034Z,94270.38
2023-02-01T05:35:37.058Z,94308.44
2023-02-01T05:38:04.735Z,94272.38
2023-02-01T05:40:31.244Z,94215.66
2023-02-01T05:42:57.799Z,94180.91
2023-02-01T05:45:24.405Z,94213.97
2023-02-01T05:47:50.856Z,94214.13
2023-02-01T05:50:17.917Z,94214.31
2023-02-01T05:52:44.389Z,94196.31
2023-02-01T05:55:10.915Z,94216.78
2023-02-01T05:57:38.604Z,94248.69
2023-02-01T06:00:05.371Z,94266.81
2023-02-01T06:02:31.957Z,94266.13
2023-02-01T06:04:58.483Z,94282.75
2023-02-01T06:07:24.978Z,94251.88
2023-02-01T06:09:51.438Z,94236.72
2023-02-01T06:12:18.032Z,94231.47
2023-02-01T06:14:44.665Z,94238.38
2023-02-01T06:17:11.238Z,94224.00
2023-02-01T06:19:37.847Z,94248.50
2023-02-01T06:22:07.262Z,94234.69
2023-02-01T06:24:34.980Z,94242.94
2023-02-01T06:27:01.612Z,94246.13
2023-02-01T06:29:28.080Z,94244.59
2023-02-01T06:31:54.786Z,94257.38
2023-02-01T06:34:23.387Z,94267.09
2023-02-01T06:36:50.474Z,94276.03
2023-02-01T06:39:17.194Z,94273.09
2023-02-01T06:41:47.369Z,94292.66
2023-02-01T06:44:15.167Z,94321.25
2023-02-01T06:46:42.126Z,94403.66
2023-02-01T06:49:09.495Z,94370.78
2023-02-01T06:51:35.993Z,94351.94
2023-02-01T06:54:02.498Z,94316.81
2023-02-01T06:56:28.999Z,94309.34
2023-02-01T06:58:55.509Z,94294.88
2023-02-01T07:01:21.944Z,94309.75
2023-02-01T07:03:50.051Z,94321.91
2023-02-01T07:06:16.612Z,94327.28
2023-02-01T07:08:44.276Z,94307.56
2023-02-01T07:11:12.278Z,94310.09
2023-02-01T07:13:38.850Z,94316.25
2023-02-01T07:16:06.574Z,94329.22
2023-02-01T07:18:33.842Z,94345.56
2023-02-01T07:21:00.976Z,94373.16
2023-02-01T07:23:28.034Z,94396.16
2023-02-01T07:25:56.563Z,94427.44
2023-02-01T07:28:23.352Z,94453.84
2023-02-01T07:30:52.097Z,94475.09
2023-02-01T07:33:20.468Z,94480.53
2023-02-01T07:35:48.520Z,94513.16
2023-02-01T07:38:15.124Z,94547.94
2023-02-01T07:40:42.983Z,94594.59
2023-02-01T07:43:11.004Z,94629.34
2023-02-01T07:45:37.817Z,94639.78
2023-02-01T07:48:04.743Z,94660.50
2023-02-01T07:50:31.623Z,94703.47
2023-02-01T07:53:01.915Z,94734.41
2023-02-01T07:55:28.845Z,94742.16
2023-02-01T07:57:57.738Z,94757.06
2023-02-01T08:00:42.731Z,94770.41
2023-02-01T08:03:09.253Z,94775.03
2023-02-01T08:05:38.997Z,94797.47
2023-02-01T08:08:07.133Z,94809.19
2023-02-01T08:10:35.805Z,94827.44
2023-02-01T08:13:03.128Z,94838.06
2023-02-01T08:15:30.009Z,94853.97
2023-02-01T08:17:56.839Z,94871.22
2023-02-01T08:20:24.497Z,94877.81
2023-02-01T08:22:54.523Z,94889.88
2023-02-01T08:25:21.795Z,94901.03
2023-02-01T08:27:48.880Z,94903.53
2023-02-01T08:30:15.541Z,94918.91
2023-02-01T08:32:42.025Z,94921.06
2023-02-01T08:35:10.681Z,94929.25
2023-02-01T08:37:37.745Z,94948.75
2023-02-01T08:40:05.311Z,94915.53
2023-02-01T08:42:50.559Z,94879.41
2023-02-01T08:45:17.375Z,94845.81
2023-02-01T08:47:43.855Z,94849.97
2023-02-01T08:50:11.099Z,94868.72
2023-02-01T08:52:38.370Z,94972.47
2023-02-01T08:55:05.307Z,95055.19
2023-02-01T08:57:32.149Z,95084.38
2023-02-01T08:59:58.976Z,95114.25
2023-02-01T09:02:26.774Z,95251.16
2023-02-01T09:04:54.973Z,95337.28
2023-02-01T09:07:21.490Z,95324.91
2023-02-01T09:09:49.443Z,95332.31
2023-02-01T09:12:15.903Z,95362.09
2023-02-01T09:14:43.501Z,95334.19
2023-02-01T09:17:09.967Z,95290.81
2023-02-01T09:19:36.474Z,95273.75
2023-02-01T09:22:02.925Z,95265.34
2023-02-01T09:24:29.480Z,95198.69
2023-02-01T09:26:56.167Z,95156.72
2023-02-01T09:29:23.917Z,95173.13
2023-02-01T09:32:02.830Z,95247.84
2023-02-01T09:34:30.596Z,95292.81
2023-02-01T09:36:57.907Z,95305.91
2023-02-01T09:39:24.445Z,95322.53
2023-02-01T09:42:07.692Z,95350.88
2023-02-01T09:44:44.678Z,95309.25
2023-02-01T09:47:15.240Z,95314.75
2023-02-01T09:49:48.657Z,95351.78
2023-02-01T09:52:16.238Z,95360.22
2023-02-01T09:54:47.898Z,95339.50
2023-02-01T09:57:19.603Z,95366.84
2023-02-01T09:59:53.010Z,95372.41
2023-02-01T10:02:26.856Z,95342.47
2023-02-01T10:04:56.377Z,95347.03
2023-02-01T10:07:22.811Z,95364.22
2023-02-01T10:09:52.352Z,95379.28
2023-02-01T10:12:21.885Z,95412.00
2023-02-01T10:15:11.499Z,95520.81
2023-02-01T10:17:46.853Z,95639.81
2023-02-01T10:20:13.368Z,95701.19
2023-02-01T10:23:08.766Z,95828.09
2023-02-01T10:25:35.589Z,95890.34
2023-02-01T10:28:03.029Z,95908.13
2023-02-01T10:30:39.678Z,95967.94
2023-02-01T10:33:22.815Z,96016.56
2023-02-01T10:35:54.632Z,96041.75
2023-02-01T10:38:31.298Z,96052.22
2023-02-01T10:41:03.260Z,96071.47
2023-02-01T10:43:30.103Z,96070.06
2023-02-01T10:45:56.767Z,96067.41
2023-02-01T10:48:23.577Z,96107.16
2023-02-01T10:50:56.428Z,96137.50
2023-02-01T10:53:25.483Z,96136.28
2023-02-01T10:55:54.514Z,96177.91
2023-02-01T10:58:32.739Z,96209.19
2023-02-01T11:01:05.785Z,96214.69
2023-02-01T11:03:37.368Z,96217.97
2023-02-01T11:06:10.676Z,96245.19
2023-02-01T11:08:43.391Z,96247.84
2023-02-01T11:11:14.082Z,96238.03
2023-02-01T11:13:41.497Z,96279.97
2023-02-01T11:16:12.063Z,96311.56
2023-02-01T11:18:39.682Z,96320.22
2023-02-01T11:21:07.057Z,96306.28
2023-02-01T11:23:35.938Z,96333.19
2023-02-01T11:26:09.361Z,96348.38
2023-02-01T11:28:36.700Z,96333.56
2023-02-01T11:31:05.875Z,96363.88
2023-02-01T11:33:36.314Z,96368.09
2023-02-01T11:36:09.854Z,96362.19
2023-02-01T11:38:37.004Z,96351.41
2023-02-01T11:41:14.585Z,96356.06
2023-02-01T11:44:00.784Z,96352.91
2023-02-01T11:46:34.799Z,96342.03
2023-02-01T11:49:27.915Z,96343.53
2023-02-01T11:52:03.382Z,96346.19
2023-02-01T11:54:38.817Z,96340.13
2023-02-01T11:57:05.961Z,96354.38
2023-02-01T11:59:51.670Z,96360.59
2023-02-01T12:02:22.697Z,96360.91
2023-02-01T12:04:49.234Z,96356.91
2023-02-01T12:07:34.538Z,96382.22
2023-02-01T12:10:24.693Z,96380.00
2023-02-01T12:13:23.996Z,96373.50
2023-02-01T12:16:15.915Z,96388.50
2023-02-01T12:18:54.687Z,96395.22
2023-02-01T12:21:27.196Z,96367.25
2023-02-01T12:24:12.568Z,96380.88
2023-02-01T12:26:53.427Z,96380.38
2023-02-01T12:29:27.961Z,96360.69
2023-02-01T12:32:00.740Z,96379.63
2023-02-01T12:34:51.215Z,96384.78
2023-02-01T12:37:24.311Z,96381.47
2023-02-01T12:40:01.790Z,96374.00
2023-02-01T12:42:32.583Z,96372.75
2023-02-01T12:45:03.447Z,96373.34
2023-02-01T12:47:48.361Z,96374.81
2023-02-01T12:50:14.953Z,96406.88
2023-02-01T12:53:01.740Z,96402.94
2023-02-01T12:55:34.954Z,96382.16
2023-02-01T12:58:13.046Z,96404.69
2023-02-01T13:00:39.701Z,96417.03
2023-02-01T13:03:24.835Z,96413.28
2023-02-01T13:05:55.385Z,96428.53
2023-02-01T13:08:39.563Z,96439.13
2023-02-01T13:11:11.398Z,96415.34
2023-02-01T13:13:45.469Z,96419.94
2023-02-01T13:16:19.221Z,96430.97
2023-02-01T13:18:48.732Z,96423.13
2023-02-01T13:21:36.759Z,96413.50
2023-02-01T13:24:03.855Z,96409.41
2023-02-01T13:26:31.599Z,96419.72
2023-02-01T13:29:00.730Z,96414.72
2023-02-01T13:31:37.698Z,96415.41
2023-02-01T13:34:24.601Z,96434.47
2023-02-01T13:36:51.131Z,96435.69
2023-02-01T13:39:21.015Z,96431.06
2023-02-01T13:41:50.655Z,96427.28
2023-02-01T13:44:21.544Z,96443.06
2023-02-01T13:46:48.793Z,96437.91
2023-02-01T13:49:24.028Z,96437.66
2023-02-01T13:51:53.929Z,96459.88
2023-02-01T13:54:40.441Z,96436.50
2023-02-01T13:57:15.759Z,96441.41
2023-02-01T13:59:42.273Z,96458.63
2023-02-01T14:02:28.858Z,96465.19
2023-02-01T14:04:55.878Z,96448.66
2023-02-01T14:07:23.149Z,96486.22
2023-02-01T14:09:50.096Z,96479.59
2023-02-01T14:12:35.592Z,96481.66
2023-02-01T14:15:25.277Z,96496.88
2023-02-01T14:17:52.405Z,96496.78
2023-02-01T14:20:37.796Z,96490.09
2023-02-01T14:23:05.384Z,96490.88
2023-02-01T14:25:35.185Z,96510.06
2023-02-01T14:28:03.924Z,96501.81
2023-02-01T14:30:30.430Z,96505.50
2023-02-01T14:32:57.069Z,96520.78
2023-02-01T14:35:26.904Z,96520.19
2023-02-01T14:37:55.312Z,96509.44
2023-02-01T14:40:26.240Z,96516.06
2023-02-01T14:42:57.912Z,96507.25
2023-02-01T14:45:25.152Z,96500.34
2023-02-01T14:47:51.970Z,96519.09
2023-02-01T14:50:22.379Z,96514.66
2023-02-01T14:53:07.851Z,96497.59
2023-02-01T14:55:36.621Z,96521.66
2023-02-01T14:58:07.323Z,96507.03
2023-02-01T15:00:35.572Z,96499.88
2023-02-01T15:03:22.277Z,96507.97
2023-02-01T15:05:55.352Z,96488.88
2023-02-01T15:08:25.593Z,96483.66
2023-02-01T15:10:53.314Z,96467.53
2023-02-01T15:13:21.089Z,96461.25
2023-02-01T15:16:08.858Z,96457.34
2023-02-01T15:18:35.402Z,96438.41
2023-02-01T15:21:09.429Z,96432.66
2023-02-01T15:23:49.893Z,96409.56
2023-02-01T15:26:25.810Z,96398.47
2023-02-01T15:28:53.538Z,96386.94
2023-02-01T15:31:34.104Z,96381.41
2023-02-01T15:34:02.608Z,96333.50
2023-02-01T15:36:31.412Z,96314.94
2023-02-01T15:39:21.485Z,96264.78
2023-02-01T15:41:51.372Z,96228.81
2023-02-01T15:44:30.289Z,96172.56
2023-02-01T15:46:56.993Z,96135.56
2023-02-01T15:49:40.337Z,96134.53
2023-02-01T15:52:17.533Z,96088.44
2023-02-01T15:54:47.408Z,96068.44
2023-02-01T15:57:20.233Z,96065.78
2023-02-01T15:59:46.781Z,96124.13
2023-02-01T16:02:30.647Z,96041.16
2023-02-01T16:04:57.404Z,95980.63
2023-02-01T16:07:27.485Z,95936.47
2023-02-01T16:09:56.183Z,96061.31
2023-02-01T16:12:47.610Z,96093.03
2023-02-01T16:15:14.960Z,95999.72
2023-02-01T16:17:41.771Z,95971.25
2023-02-01T16:20:08.605Z,96044.28
2023-02-01T16:22:36.474Z,96007.13
2023-02-01T16:25:03.145Z,95976.00
2023-02-01T16:27:29.736Z,95934.88
2023-02-01T16:29:58.065Z,95922.41
2023-02-01T16:32:24.743Z,95903.84
2023-02-01T16:34:51.402Z,95895.22
2023-02-01T16:37:22.920Z,95866.38
2023-02-01T16:39:50.281Z,95854.56
2023-02-01T16:42:17.345Z,95872.28
2023-02-01T16:44:44.066Z,95934.53
2023-02-01T16:47:13.145Z,95899.13
2023-02-01T16:49:41.365Z,95833.97
2023-02-01T16:52:14.089Z,95789.44
2023-02-01T16:54:40.873Z,95793.13
2023-02-01T16:57:11.659Z,95864.88
2023-02-01T16:59:38.410Z,95948.22
2023-02-01T17:02:05.096Z,95953.22
2023-02-01T17:04:31.740Z,95932.97
2023-02-01T17:06:59.305Z,95920.25
2023-02-01T17:09:26.423Z,95923.75
2023-02-01T17:11:52.953Z,95910.53
2023-02-01T17:14:21.184Z,95874.75
2023-02-01T17:16:49.325Z,95781.72
2023-02-01T17:19:20.412Z,95726.63
2023-02-01T17:21:50.311Z,95717.38
2023-02-01T17:24:17.984Z,95756.34
2023-02-01T17:26:45.572Z,95795.31
2023-02-01T17:29:12.463Z,95831.63
2023-02-01T17:31:41.159Z,95813.72
2023-02-01T17:34:07.852Z,95810.59
2023-02-01T17:36:36.581Z,95858.22
2023-02-01T17:39:06.447Z,95791.16
2023-02-01T17:41:34.882Z,95701.63
2023-02-01T17:44:01.723Z,95643.91
2023-02-01T17:46:28.694Z,95617.31
2023-02-01T17:48:55.390Z,95595.34
2023-02-01T17:51:27.306Z,95599.06
2023-02-01T17:53:54.044Z,95578.69
2023-02-01T17:56:22.062Z,95543.66
2023-02-01T17:58:50.133Z,95572.91
2023-02-01T18:01:20.936Z,95582.41
2023-02-01T18:03:48.232Z,95594.09
2023-02-01T18:06:15.991Z,95616.66
2023-02-01T18:08:42.906Z,95598.94
2023-02-01T18:11:13.841Z,95631.28
2023-02-01T18:13:42.030Z,95662.03
2023-02-01T18:16:17.728Z,95626.28
2023-02-01T18:18:44.546Z,95636.97
2023-02-01T18:21:11.089Z,95667.91
2023-02-01T18:23:37.661Z,95755.69
2023-02-01T18:26:04.941Z,95811.19
2023-02-01T18:28:32.575Z,95913.66
2023-02-01T18:31:00.740Z,95940.56
2023-02-01T18:33:27.231Z,95940.13
2023-02-01T18:35:54.833Z,95902.16
2023-02-01T18:38:21.800Z,95908.63
2023-02-01T18:40:54.157Z,95873.50
2023-02-01T18:43:21.025Z,95865.09
2023-02-01T18:45:47.960Z,95873.81
2023-02-01T18:48:15.637Z,95912.03
2023-02-01T18:50:43.340Z,95908.69
2023-02-01T18:53:14.413Z,95846.47
2023-02-01T18:55:41.335Z,95766.09
2023-02-01T18:58:08.201Z,95728.47
2023-02-01T19:00:35.434Z,95749.78
2023-02-01T19:03:02.393Z,95708.81
2023-02-01T19:05:30.796Z,95685.22
2023-02-01T19:07:57.425Z,95696.69
2023-02-01T19:10:24.406Z,95734.91
2023-02-01T19:12:52.020Z,95829.44
2023-02-01T19:15:18.926Z,95839.84
2023-02-01T19:17:47.137Z,95848.31
2023-02-01T19:20:14.552Z,95812.66
2023-02-01T19:22:42.288Z,95747.91
2023-02-01T19:25:13.028Z,95693.09
2023-02-01T19:27:40.817Z,95644.59
2023-02-01T19:30:07.694Z,95633.28
2023-02-01T19:32:34.206Z,95683.47
2023-02-01T19:35:00.714Z,95675.97
2023-02-01T19:37:27.247Z,95651.25
2023-02-01T19:39:54.205Z,95645.19
2023-02-01T19:42:20.811Z,95651.25
2023-02-01T19:44:48.729Z,95663.38
2023-02-01T19:47:16.994Z,95678.91
2023-02-01T19:49:43.604Z,95670.97
2023-02-01T19:52:10.530Z,95716.91
2023-02-01T19:54:37.088Z,95707.16
2023-02-01T19:57:03.682Z,95714.78
2023-02-01T19:59:30.309Z,95736.28
2023-02-01T20:01:56.085Z,95766.38
2023-02-01T20:04:22.619Z,95797.25
2023-02-01T20:06:49.392Z,95836.22
2023-02-01T20:09:16.883Z,95850.25
2023-02-01T20:11:44.850Z,95893.63
2023-02-01T20:14:12.420Z,95921.34
2023-02-01T20:16:39.947Z,95940.47
2023-02-01T20:19:06.790Z,95952.94
2023-02-01T20:21:33.333Z,95980.75
2023-02-01T20:23:59.918Z,96000.28
2023-02-01T20:26:27.601Z,96022.78
2023-02-01T20:28:57.145Z,96042.97
2023-02-01T20:31:25.209Z,96048.69
2023-02-01T20:33:52.870Z,96064.94
2023-02-01T20:36:19.998Z,96094.28
2023-02-01T20:38:46.941Z,96110.34
2023-02-01T20:41:14.596Z,96104.38
2023-02-01T20:43:41.123Z,96107.13
2023-02-01T20:46:09.707Z,96084.28
2023-02-01T20:48:36.361Z,96091.81
2023-02-01T20:51:03.940Z,96099.88
2023-02-01T20:53:30.437Z,96121.81
2023-02-01T20:56:01.766Z,96128.59
2023-02-01T20:58:29.595Z,96137.50
2023-02-01T21:00:57.415Z,96139.66
2023-02-01T21:03:24.107Z,96158.25
2023-02-01T21:05:55.107Z,96171.03
2023-02-01T21:08:21.804Z,96204.47
2023-02-01T21:10:57.596Z,96199.84
2023-02-01T21:13:24.922Z,96195.69
2023-02-01T21:15:53.115Z,96189.09
2023-02-01T21:18:19.645Z,96204.25
2023-02-01T21:20:47.355Z,96240.22
2023-02-01T21:23:14.280Z,96274.31
2023-02-01T21:25:41.352Z,96296.91
2023-02-01T21:28:07.871Z,96312.44
2023-02-01T21:30:34.368Z,96304.09
2023-02-01T21:33:02.947Z,96312.56
2023-02-01T21:35:29.699Z,96347.75
2023-02-01T21:37:57.030Z,96379.53
2023-02-01T21:40:27.471Z,96387.69
2023-02-01T21:42:54.364Z,96361.81
2023-02-01T21:45:21.438Z,96431.06
2023-02-01T21:47:49.478Z,96463.81
2023-02-01T21:50:17.423Z,96438.38
2023-02-01T21:52:44.078Z,96406.13
2023-02-01T21:55:12.871Z,96385.75
2023-02-01T21:57:40.667Z,96350.38
2023-02-01T22:00:09.932Z,96387.22
2023-02-01T22:02:36.733Z,96378.25
2023-02-01T22:05:05.436Z,96358.06
2023-02-01T22:07:33.196Z,96366.13
2023-02-01T22:10:01.064Z,96318.50
2023-02-01T22:12:29.011Z,96237.81
2023-02-01T22:14:56.667Z,96197.38
2023-02-01T22:17:24.296Z,96191.22
2023-02-01T22:19:52.184Z,96203.44
2023-02-01T22:22:18.652Z,96234.19
2023-02-01T22:24:45.234Z,96241.91
2023-02-01T22:27:14.349Z,96245.69
2023-02-01T22:29:41.612Z,96280.56
2023-02-01T22:32:08.768Z,96285.78
2023-02-01T22:34:42.054Z,96308.84
2023-02-01T22:37:11.167Z,96314.47
2023-02-01T22:39:38.564Z,96341.91
2023-02-01T22:42:05.198Z,96334.22
2023-02-01T22:44:31.823Z,96323.41
2023-02-01T22:46:59.045Z,96273.50
2023-02-01T22:49:25.508Z,96235.84
2023-02-01T22:51:52.408Z,96214.19
2023-02-01T22:54:21.634Z,96223.81
2023-02-01T22:56:48.251Z,96214.59
2023-02-01T22:59:16.039Z,96194.25
2023-02-01T23:01:43.193Z,96193.06
2023-02-01T23:04:10.860Z,96192.41
2023-02-01T23:06:37.457Z,96191.06
2023-02-01T23:09:05.729Z,96204.06
2023-02-01T23:11:33.579Z,96187.75
2023-02-01T23:14:00.107Z,96190.94
2023-02-01T23:16:26.594Z,96201.63
2023-02-01T23:18:53.023Z,96204.72
2023-02-01T23:21:20.715Z,96182.75
2023-02-01T23:23:48.467Z,96169.97
2023-02-01T23:26:15.265Z,96167.78
2023-02-01T23:28:42.066Z,96173.47
2023-02-01T23:31:09.624Z,96158.84
2023-02-01T23:33:37.020Z,96114.47
2023-02-01T23:36:05.968Z,96073.53
2023-02-01T23:38:33.828Z,96075.72
2023-02-01T23:41:04.544Z,96087.81
2023-02-01T23:43:50.224Z,96070.78
2023-02-01T23:46:18.648Z,96037.81
2023-02-01T23:48:46.339Z,96046.47
2023-02-01T23:51:15.307Z,96065.81
2023-02-01T23:53:41.846Z,96093.66
2023-02-01T23:56:08.483Z,96069.66
2023-02-01T23:58:35.036Z,96080.56
